Time;durP1;ratioP1;P1;durP2;ratioP2;P2;SDS_P1;SDS_P2;PMS_P1;PMS_P2;Temp;Humidity;BMP_temperature;BMP_pressure;BME280_temperature;BME280_humidity;BME280_pressure;Samples;Min_cycle;Max_cycle;Signal;HPM_P1;HPM_P2
2023/05/09 00:01:35;;;;;;;47.05;24.58;;;;;;;;;;5119036;27;20503;-71
2023/05/09 00:04:01;;;;;;;50.47;24.40;;;;;;;;;;5131286;27;20042;-72
2023/05/09 00:06:27;;;;;;;52.00;25.45;;;;;;;;;;5136657;27;20049;-80
2023/05/09 00:08:57;;;;;;;58.17;26.05;;;;;;;;;;5136199;27;20069;-72
2023/05/09 00:11:23;;;;;;;49.05;24.70;;;;;;;;;;5139551;27;20038;-72
2023/05/09 00:13:49;;;;;;;53.83;25.55;;;;;;;;;;5154791;27;20038;-72
2023/05/09 00:16:15;;;;;;;58.28;26.65;;;;;;;;;;5135534;27;20048;-72
2023/05/09 00:18:42;;;;;;;53.58;25.02;;;;;;;;;;5154450;27;20039;-72
2023/05/09 00:21:11;;;;;;;56.50;26.13;;;;;;;;;;5154224;27;20027;-72
2023/05/09 00:23:38;;;;;;;57.45;27.45;;;;;;;;;;5131670;27;20068;-79
2023/05/09 00:26:04;;;;;;;58.65;26.90;;;;;;;;;;5139500;27;20094;-80
2023/05/09 00:28:31;;;;;;;56.50;25.02;;;;;;;;;;5119350;27;20483;-79
2023/05/09 00:30:57;;;;;;;54.88;26.00;;;;;;;;;;5136075;27;20046;-80
2023/05/09 00:33:25;;;;;;;57.50;26.00;;;;;;;;;;5122322;27;20070;-80
2023/05/09 00:35:52;;;;;;;58.78;26.42;;;;;;;;;;5115520;27;20047;-79
2023/05/09 00:38:18;;;;;;;54.92;25.80;;;;;;;;;;5151760;27;20030;-79
2023/05/09 00:40:45;;;;;;;50.78;25.35;;;;;;;;;;5135882;27;20042;-79
2023/05/09 00:43:11;;;;;;;53.67;26.15;;;;;;;;;;5151792;27;20034;-80
2023/05/09 00:45:37;;;;;;;52.30;25.38;;;;;;;;;;5153861;27;20055;-79
2023/05/09 00:48:03;;;;;;;53.65;25.50;;;;;;;;;;5136066;27;20439;-79
2023/05/09 00:50:30;;;;;;;56.00;25.27;;;;;;;;;;5154257;27;20042;-72
2023/05/09 00:52:56;;;;;;;53.65;25.73;;;;;;;;;;5135499;27;20103;-71
2023/05/09 00:55:23;;;;;;;60.85;26.52;;;;;;;;;;5111240;27;20047;-79
2023/05/09 00:57:49;;;;;;;56.17;26.95;;;;;;;;;;5140419;27;20039;-71
2023/05/09 01:00:15;;;;;;;62.05;26.75;;;;;;;;;;5135201;27;20039;-72
2023/05/09 01:02:46;;;;;;;58.53;26.40;;;;;;;;;;5135258;27;20042;-72
2023/05/09 01:05:12;;;;;;;57.50;26.63;;;;;;;;;;5133639;27;20054;-72
2023/05/09 01:07:45;;;;;;;59.60;27.90;;;;;;;;;;5118637;27;20510;-79
2023/05/09 01:10:14;;;;;;;62.20;27.80;;;;;;;;;;5153924;27;20079;-79
2023/05/09 01:12:52;;;;;;;59.30;26.65;;;;;;;;;;5135180;27;20046;-79
2023/05/09 01:15:22;;;;;;;57.13;27.17;;;;;;;;;;5133458;27;20079;-79
2023/05/09 01:17:51;;;;;;;62.63;28.23;;;;;;;;;;5132670;27;20038;-79
2023/05/09 01:20:38;;;;;;;62.22;27.45;;;;;;;;;;5125505;28;20049;-79
2023/05/09 01:23:04;;;;;;;;;;;;;;;;;;5147987;27;20031;-79
2023/05/09 01:25:42;;;;;;;63.60;27.75;;;;;;;;;;5122438;27;20401;-72
2023/05/09 01:28:11;;;;;;;62.60;27.33;;;;;;;;;;5129411;28;20118;-80
2023/05/09 01:30:37;;;;;;;62.35;27.70;;;;;;;;;;5125587;27;20070;-79
2023/05/09 01:33:06;;;;;;;67.95;28.73;;;;;;;;;;5135462;27;20043;-80
2023/05/09 01:35:32;;;;;;;66.68;29.15;;;;;;;;;;5134791;27;20034;-72
2023/05/09 01:37:59;;;;;;;68.65;28.65;;;;;;;;;;5117023;27;20340;-80
2023/05/09 01:40:26;;;;;;;65.78;28.05;;;;;;;;;;5134937;27;20030;-80
2023/05/09 01:43:03;;;;;;;66.28;27.98;;;;;;;;;;5135766;27;20039;-80
2023/05/09 01:45:30;;;;;;;55.63;25.92;;;;;;;;;;5121450;27;20051;-80
2023/05/09 01:47:57;;;;;;;59.38;27.20;;;;;;;;;;5153218;27;20056;-72
2023/05/09 01:50:24;;;;;;;71.90;28.75;;;;;;;;;;5153840;27;20083;-80
2023/05/09 01:52:52;;;;;;;67.57;28.45;;;;;;;;;;5146118;27;20482;-80
2023/05/09 01:55:19;;;;;;;68.43;29.08;;;;;;;;;;5132040;27;20090;-79
2023/05/09 01:57:45;;;;;;;70.43;29.90;;;;;;;;;;5127994;27;20121;-80
2023/05/09 02:00:13;;;;;;;69.68;29.13;;;;;;;;;;5138950;27;20402;-72
2023/05/09 02:02:40;;;;;;;62.03;27.95;;;;;;;;;;5125265;27;20051;-79
2023/05/09 02:05:08;;;;;;;74.93;30.90;;;;;;;;;;5134615;27;20372;-80
2023/05/09 02:07:34;;;;;;;70.40;29.70;;;;;;;;;;5128170;27;20072;-80
2023/05/09 02:10:01;;;;;;;70.03;29.25;;;;;;;;;;5135427;27;20042;-72
2023/05/09 02:12:27;;;;;;;72.80;29.90;;;;;;;;;;5133627;27;20045;-72
2023/05/09 02:14:54;;;;;;;70.00;29.52;;;;;;;;;;5131075;27;20035;-80
2023/05/09 02:17:20;;;;;;;71.13;30.88;;;;;;;;;;5151766;27;20043;-80
2023/05/09 02:19:46;;;;;;;71.95;29.02;;;;;;;;;;5136351;27;20051;-71
2023/05/09 02:22:13;;;;;;;67.80;29.45;;;;;;;;;;5132231;27;20041;-71
2023/05/09 02:24:40;;;;;;;70.00;30.20;;;;;;;;;;5135425;27;20035;-80
2023/05/09 02:27:06;;;;;;;73.00;30.63;;;;;;;;;;5138613;27;20571;-80
2023/05/09 02:29:39;;;;;;;72.63;29.60;;;;;;;;;;5151553;27;20066;-80
2023/05/09 02:32:10;;;;;;;78.65;31.58;;;;;;;;;;5127726;27;20039;-80
2023/05/09 02:34:38;;;;;;;74.80;30.63;;;;;;;;;;5135011;27;20031;-80
2023/05/09 02:37:04;;;;;;;70.28;30.17;;;;;;;;;;5120837;27;20047;-80
2023/05/09 02:39:30;;;;;;;75.72;29.98;;;;;;;;;;5136442;27;20034;-80
2023/05/09 02:41:56;;;;;;;72.80;30.65;;;;;;;;;;5121130;27;20035;-80
2023/05/09 02:44:22;;;;;;;72.28;30.10;;;;;;;;;;5117486;27;20126;-79
2023/05/09 02:46:49;;;;;;;74.03;30.77;;;;;;;;;;5136984;27;20047;-80
2023/05/09 02:49:15;;;;;;;77.20;31.42;;;;;;;;;;5156578;27;20038;-80
2023/05/09 02:51:41;;;;;;;75.68;31.10;;;;;;;;;;5144424;27;20049;-81
2023/05/09 02:54:07;;;;;;;83.43;32.45;;;;;;;;;;5137913;27;20053;-80
2023/05/09 02:56:33;;;;;;;74.32;30.58;;;;;;;;;;5122761;27;20114;-79
2023/05/09 02:58:59;;;;;;;78.20;30.52;;;;;;;;;;5137810;27;20038;-81
2023/05/09 03:01:25;;;;;;;80.47;31.65;;;;;;;;;;5135132;27;20033;-72
2023/05/09 03:03:52;;;;;;;73.65;31.25;;;;;;;;;;5154506;27;20490;-80
2023/05/09 03:06:18;;;;;;;84.25;33.75;;;;;;;;;;5119458;27;20045;-80
2023/05/09 03:08:44;;;;;;;78.90;32.58;;;;;;;;;;5137093;27;20054;-80
2023/05/09 03:11:10;;;;;;;76.22;31.80;;;;;;;;;;5154342;27;20487;-80
2023/05/09 03:13:36;;;;;;;81.63;32.75;;;;;;;;;;5122615;27;20047;-71
2023/05/09 03:16:02;;;;;;;79.57;32.10;;;;;;;;;;5155494;27;20078;-81
2023/05/09 03:18:28;;;;;;;77.13;31.67;;;;;;;;;;5137690;27;20039;-80
2023/05/09 03:20:54;;;;;;;75.82;31.27;;;;;;;;;;5137471;27;20080;-80
2023/05/09 03:23:20;;;;;;;75.15;31.25;;;;;;;;;;5134870;27;20043;-74
2023/05/09 03:25:46;;;;;;;75.53;31.88;;;;;;;;;;5155467;27;20038;-72
2023/05/09 03:28:12;;;;;;;72.60;30.40;;;;;;;;;;5155538;27;20486;-72
2023/05/09 03:30:38;;;;;;;78.60;32.72;;;;;;;;;;5136937;27;20035;-80
2023/05/09 03:33:05;;;;;;;79.78;32.65;;;;;;;;;;5123759;27;20031;-80
2023/05/09 03:35:31;;;;;;;79.10;31.98;;;;;;;;;;5123532;27;20108;-72
2023/05/09 03:37:57;;;;;;;80.30;31.75;;;;;;;;;;5104058;27;20483;-80
2023/05/09 03:40:23;;;;;;;83.88;32.45;;;;;;;;;;5155627;27;20026;-80
2023/05/09 03:42:49;;;;;;;80.80;32.67;;;;;;;;;;5149437;27;20065;-80
2023/05/09 03:45:15;;;;;;;77.05;32.65;;;;;;;;;;5116535;27;20433;-80
2023/05/09 03:47:42;;;;;;;86.30;33.95;;;;;;;;;;5125358;27;20095;-80
2023/05/09 03:50:08;;;;;;;83.05;32.92;;;;;;;;;;5137563;27;20563;-79
2023/05/09 03:52:36;;;;;;;78.82;32.50;;;;;;;;;;5120988;27;20039;-80
2023/05/09 03:55:02;;;;;;;85.53;34.05;;;;;;;;;;5135214;27;20568;-72
2023/05/09 03:57:28;;;;;;;89.35;33.90;;;;;;;;;;5131989;27;20122;-72
2023/05/09 03:59:54;;;;;;;81.13;31.25;;;;;;;;;;5139841;27;20395;-79
2023/05/09 04:02:21;;;;;;;82.70;33.63;;;;;;;;;;5118552;27;20031;-80
2023/05/09 04:04:48;;;;;;;84.38;33.13;;;;;;;;;;5149407;27;20035;-80
2023/05/09 04:07:14;;;;;;;91.40;34.95;;;;;;;;;;5153753;27;20534;-81
2023/05/09 04:09:41;;;;;;;75.75;31.17;;;;;;;;;;5135822;27;20412;-80
2023/05/09 04:12:08;;;;;;;85.70;35.67;;;;;;;;;;5136487;27;20064;-80
2023/05/09 04:14:34;;;;;;;89.90;36.15;;;;;;;;;;5128888;27;20039;-80
2023/05/09 04:17:00;;;;;;;90.47;36.03;;;;;;;;;;5129555;27;20126;-80
2023/05/09 04:19:26;;;;;;;88.55;35.38;;;;;;;;;;5134159;27;20042;-80
2023/05/09 04:21:52;;;;;;;93.90;36.30;;;;;;;;;;5147149;27;20031;-81
2023/05/09 04:24:18;;;;;;;92.70;36.38;;;;;;;;;;5121045;27;20038;-81
2023/05/09 04:26:45;;;;;;;93.32;36.25;;;;;;;;;;5145031;27;20079;-81
2023/05/09 04:29:11;;;;;;;96.90;38.08;;;;;;;;;;5153902;27;20034;-80
2023/05/09 04:31:37;;;;;;;88.35;38.20;;;;;;;;;;5136282;27;20030;-80
2023/05/09 04:34:03;;;;;;;89.53;36.65;;;;;;;;;;5135968;27;20081;-80
2023/05/09 04:36:30;;;;;;;101.47;38.45;;;;;;;;;;5153228;27;20117;-81
2023/05/09 04:38:56;;;;;;;102.55;39.50;;;;;;;;;;5135682;27;20046;-81
2023/05/09 04:41:23;;;;;;;102.93;39.63;;;;;;;;;;5154303;27;20034;-81
2023/05/09 04:43:49;;;;;;;107.38;39.58;;;;;;;;;;5124190;27;20035;-81
2023/05/09 04:46:15;;;;;;;104.22;39.50;;;;;;;;;;5110447;27;20418;-72
2023/05/09 04:48:41;;;;;;;92.70;37.35;;;;;;;;;;5136031;27;20530;-81
2023/05/09 04:51:07;;;;;;;103.53;39.47;;;;;;;;;;5134039;27;20047;-72
2023/05/09 04:53:33;;;;;;;103.18;40.13;;;;;;;;;;5115313;27;20372;-72
2023/05/09 04:55:59;;;;;;;99.93;39.45;;;;;;;;;;5134185;27;20087;-72
2023/05/09 04:58:26;;;;;;;95.15;39.45;;;;;;;;;;5135502;27;20042;-72
2023/05/09 05:00:52;;;;;;;107.28;40.55;;;;;;;;;;5135926;27;20030;-72
2023/05/09 05:03:18;;;;;;;105.03;39.85;;;;;;;;;;5131617;28;20043;-72
2023/05/09 05:05:44;;;;;;;110.93;40.45;;;;;;;;;;5127139;27;20070;-72
2023/05/09 05:08:10;;;;;;;104.15;39.63;;;;;;;;;;5152632;27;20255;-72
2023/05/09 05:10:36;;;;;;;103.75;39.22;;;;;;;;;;5152330;27;20037;-71
2023/05/09 05:13:02;;;;;;;96.03;37.13;;;;;;;;;;5135516;27;20095;-73
2023/05/09 05:15:29;;;;;;;112.80;42.33;;;;;;;;;;5128230;27;20067;-72
2023/05/09 05:17:55;;;;;;;116.53;42.38;;;;;;;;;;5111374;28;20548;-71
2023/05/09 05:20:21;;;;;;;108.45;40.65;;;;;;;;;;5129688;27;20050;-73
2023/05/09 05:22:47;;;;;;;109.10;42.40;;;;;;;;;;5135155;27;20067;-73
2023/05/09 05:25:13;;;;;;;109.78;41.58;;;;;;;;;;5154000;27;20035;-72
2023/05/09 05:27:39;;;;;;;113.57;43.45;;;;;;;;;;5153775;27;20061;-73
2023/05/09 05:30:06;;;;;;;105.30;41.03;;;;;;;;;;5138220;27;20050;-73
2023/05/09 05:32:32;;;;;;;108.78;41.40;;;;;;;;;;5157990;27;20045;-73
2023/05/09 05:34:58;;;;;;;101.20;41.33;;;;;;;;;;5148876;27;20114;-73
2023/05/09 05:37:24;;;;;;;104.35;40.70;;;;;;;;;;5133319;27;20039;-71
2023/05/09 05:39:51;;;;;;;106.63;41.30;;;;;;;;;;5145154;27;20039;-72
2023/05/09 05:42:17;;;;;;;102.38;42.05;;;;;;;;;;5132236;27;20038;-72
2023/05/09 05:44:43;;;;;;;113.78;43.95;;;;;;;;;;5136040;27;20057;-71
2023/05/09 05:47:09;;;;;;;104.85;42.22;;;;;;;;;;5138959;27;20051;-72
2023/05/09 05:49:35;;;;;;;110.80;45.55;;;;;;;;;;5117939;27;20050;-72
2023/05/09 05:52:01;;;;;;;103.07;42.83;;;;;;;;;;5147140;27;20372;-72
2023/05/09 05:54:27;;;;;;;107.65;43.47;;;;;;;;;;5145125;27;20039;-81
2023/05/09 05:56:54;;;;;;;107.75;43.55;;;;;;;;;;5141602;27;20091;-81
2023/05/09 05:59:20;;;;;;;104.63;43.30;;;;;;;;;;5127508;27;20074;-81
2023/05/09 06:01:46;;;;;;;104.57;43.22;;;;;;;;;;5153513;27;20109;-81
2023/05/09 06:04:12;;;;;;;104.70;44.03;;;;;;;;;;5139257;27;20386;-72
2023/05/09 06:06:38;;;;;;;101.13;42.97;;;;;;;;;;5156625;27;20091;-72
2023/05/09 06:09:04;;;;;;;106.15;41.60;;;;;;;;;;5120755;27;20039;-71
2023/05/09 06:11:30;;;;;;;100.03;42.58;;;;;;;;;;5109484;27;20047;-72
2023/05/09 06:13:56;;;;;;;101.82;42.53;;;;;;;;;;5154195;27;20034;-72
2023/05/09 06:16:22;;;;;;;100.15;42.72;;;;;;;;;;5138559;27;20039;-72
2023/05/09 06:18:48;;;;;;;95.07;40.78;;;;;;;;;;5157061;27;20521;-72
2023/05/09 06:21:15;;;;;;;99.20;40.50;;;;;;;;;;5138398;27;20117;-70
2023/05/09 06:23:41;;;;;;;94.40;39.58;;;;;;;;;;5156951;27;20079;-72
2023/05/09 06:26:07;;;;;;;94.03;40.75;;;;;;;;;;5156370;27;20044;-72
2023/05/09 06:28:33;;;;;;;97.55;41.28;;;;;;;;;;5138186;27;20556;-71
2023/05/09 06:31:00;;;;;;;86.22;38.88;;;;;;;;;;5123776;27;20466;-79
2023/05/09 06:33:26;;;;;;;84.97;38.33;;;;;;;;;;5155768;27;20114;-80
2023/05/09 06:35:52;;;;;;;85.78;39.97;;;;;;;;;;5129113;27;20034;-82
2023/05/09 06:38:18;;;;;;;89.40;39.30;;;;;;;;;;5142033;27;20114;-72
2023/05/09 06:40:44;;;;;;;87.15;39.08;;;;;;;;;;5136482;27;20035;-81
2023/05/09 06:43:10;;;;;;;83.00;37.88;;;;;;;;;;5144025;27;20043;-82
2023/05/09 06:45:36;;;;;;;72.82;34.42;;;;;;;;;;5145703;27;20051;-81
2023/05/09 06:48:03;;;;;;;77.28;36.33;;;;;;;;;;5140931;27;20054;-81
2023/05/09 06:50:29;;;;;;;76.95;36.22;;;;;;;;;;5153249;27;20035;-82
2023/05/09 06:52:55;;;;;;;80.70;36.05;;;;;;;;;;5100626;27;20092;-81
2023/05/09 06:55:21;;;;;;;76.32;35.95;;;;;;;;;;5144774;27;20038;-72
2023/05/09 06:57:47;;;;;;;73.00;35.97;;;;;;;;;;5154742;27;20039;-72
2023/05/09 07:00:13;;;;;;;61.05;30.10;;;;;;;;;;5113377;27;20046;-81
2023/05/09 07:02:40;;;;;;;59.03;30.50;;;;;;;;;;5134014;27;20506;-81
2023/05/09 07:05:08;;;;;;;56.00;29.10;;;;;;;;;;5135869;27;20041;-80
2023/05/09 07:07:34;;;;;;;49.63;26.17;;;;;;;;;;5127144;27;20059;-82
2023/05/09 07:10:02;;;;;;;44.25;24.33;;;;;;;;;;5137352;27;20039;-81
2023/05/09 07:12:30;;;;;;;39.70;23.08;;;;;;;;;;5124784;27;20089;-82
2023/05/09 07:14:56;;;;;;;44.53;22.27;;;;;;;;;;5134528;27;20038;-82
2023/05/09 07:17:23;;;;;;;37.88;22.52;;;;;;;;;;5129302;27;20125;-80
2023/05/09 07:19:49;;;;;;;35.13;20.08;;;;;;;;;;5142994;27;20035;-81
2023/05/09 07:22:15;;;;;;;37.22;20.45;;;;;;;;;;5136032;27;20042;-82
2023/05/09 07:24:43;;;;;;;41.28;21.75;;;;;;;;;;5137601;27;20043;-82
2023/05/09 07:27:09;;;;;;;34.67;20.30;;;;;;;;;;5116836;27;20050;-82
2023/05/09 07:29:35;;;;;;;36.05;20.00;;;;;;;;;;5135526;27;20042;-82
2023/05/09 07:32:01;;;;;;;35.42;20.38;;;;;;;;;;5133259;27;20126;-81
2023/05/09 07:34:27;;;;;;;33.35;20.05;;;;;;;;;;5135379;27;20496;-80
2023/05/09 07:36:53;;;;;;;32.92;19.40;;;;;;;;;;5131768;27;20042;-82
2023/05/09 07:39:19;;;;;;;33.47;18.83;;;;;;;;;;5128624;27;20156;-82
2023/05/09 07:41:45;;;;;;;32.35;19.33;;;;;;;;;;5131339;27;20039;-83
2023/05/09 07:44:12;;;;;;;34.55;18.42;;;;;;;;;;5141815;27;20415;-81
2023/05/09 07:46:40;;;;;;;35.28;19.15;;;;;;;;;;5145561;27;20115;-83
2023/05/09 07:49:06;;;;;;;31.90;18.13;;;;;;;;;;5155411;27;20046;-81
2023/05/09 07:51:33;;;;;;;30.23;17.60;;;;;;;;;;5125565;27;20043;-83
2023/05/09 07:53:59;;;;;;;27.73;16.58;;;;;;;;;;5126113;27;20392;-83
2023/05/09 07:56:25;;;;;;;34.30;17.58;;;;;;;;;;5124122;27;21253;-82
2023/05/09 07:58:51;;;;;;;29.08;16.25;;;;;;;;;;5136865;27;20368;-82
2023/05/09 08:01:17;;;;;;;28.80;16.10;;;;;;;;;;5155033;27;20042;-82
2023/05/09 08:03:43;;;;;;;28.58;16.48;;;;;;;;;;5125355;27;20505;-74
2023/05/09 08:06:09;;;;;;;26.23;16.00;;;;;;;;;;5136127;27;20034;-73
2023/05/09 08:08:35;;;;;;;26.83;15.02;;;;;;;;;;5131513;27;20049;-73
2023/05/09 08:11:02;;;;;;;25.60;15.38;;;;;;;;;;5136416;27;20085;-72
2023/05/09 08:13:28;;;;;;;29.08;16.25;;;;;;;;;;5154965;27;20043;-73
2023/05/09 08:15:54;;;;;;;26.35;15.57;;;;;;;;;;5130156;27;20050;-74
2023/05/09 08:18:20;;;;;;;30.42;17.52;;;;;;;;;;5135647;27;20174;-73
2023/05/09 08:20:46;;;;;;;29.80;17.85;;;;;;;;;;5136025;27;20072;-74
2023/05/09 08:23:13;;;;;;;27.58;17.20;;;;;;;;;;5154781;27;20505;-74
2023/05/09 08:25:39;;;;;;;28.45;17.17;;;;;;;;;;5152669;27;20455;-72
2023/05/09 08:28:05;;;;;;;27.40;16.42;;;;;;;;;;5133754;27;20042;-74
2023/05/09 08:30:31;;;;;;;31.25;17.65;;;;;;;;;;5115446;27;20046;-73
2023/05/09 08:32:57;;;;;;;29.15;17.25;;;;;;;;;;5154869;27;20493;-73
2023/05/09 08:35:23;;;;;;;28.00;16.95;;;;;;;;;;5122443;27;20498;-73
2023/05/09 08:37:50;;;;;;;31.50;16.23;;;;;;;;;;5134661;27;20050;-73
2023/05/09 08:40:16;;;;;;;28.63;16.88;;;;;;;;;;5140591;27;20043;-72
2023/05/09 08:42:44;;;;;;;30.08;17.08;;;;;;;;;;5153437;27;20487;-73
2023/05/09 08:45:13;;;;;;;29.45;16.58;;;;;;;;;;5135386;27;20103;-73
2023/05/09 08:47:40;;;;;;;30.40;17.23;;;;;;;;;;5134366;27;20043;-73
2023/05/09 08:50:07;;;;;;;27.65;17.55;;;;;;;;;;5132736;27;20049;-73
2023/05/09 08:52:33;;;;;;;31.35;17.98;;;;;;;;;;5120946;27;20038;-73
2023/05/09 08:55:06;;;;;;;29.52;17.30;;;;;;;;;;5135783;27;20038;-72
2023/05/09 08:57:34;;;;;;;29.90;16.65;;;;;;;;;;5115825;27;20049;-74
2023/05/09 09:00:00;;;;;;;26.98;16.75;;;;;;;;;;5119734;27;20039;-73
2023/05/09 09:02:26;;;;;;;27.88;17.40;;;;;;;;;;5135183;27;20066;-73
2023/05/09 09:04:54;;;;;;;27.55;16.70;;;;;;;;;;5134978;27;20439;-72
2023/05/09 09:07:21;;;;;;;27.90;16.65;;;;;;;;;;5134621;27;20114;-72
2023/05/09 09:09:48;;;;;;;30.70;17.38;;;;;;;;;;5135346;27;20051;-73
2023/05/09 09:12:15;;;;;;;28.65;17.20;;;;;;;;;;5133700;27;20045;-72
2023/05/09 09:14:42;;;;;;;27.95;17.45;;;;;;;;;;5098033;28;20043;-73
2023/05/09 09:17:10;;;;;;;26.92;17.00;;;;;;;;;;5133762;27;20039;-73
2023/05/09 09:19:40;;;;;;;26.27;16.83;;;;;;;;;;5135263;27;20054;-73
2023/05/09 09:22:07;;;;;;;28.75;17.23;;;;;;;;;;5122629;27;20035;-73
2023/05/09 09:24:33;;;;;;;25.23;16.52;;;;;;;;;;5153833;27;20031;-73
2023/05/09 09:27:05;;;;;;;30.67;17.08;;;;;;;;;;5135658;27;20042;-73
2023/05/09 09:29:32;;;;;;;27.00;17.35;;;;;;;;;;5135328;27;20105;-72
2023/05/09 09:32:01;;;;;;;26.85;16.88;;;;;;;;;;5144782;27;20038;-71
2023/05/09 09:34:27;;;;;;;30.98;18.00;;;;;;;;;;5149227;27;20038;-72
2023/05/09 09:36:53;;;;;;;24.65;16.73;;;;;;;;;;5125698;27;20426;-72
2023/05/09 09:39:20;;;;;;;31.90;18.45;;;;;;;;;;5156263;27;20122;-81
2023/05/09 09:41:47;;;;;;;25.10;16.02;;;;;;;;;;5153628;27;20047;-83
2023/05/09 09:44:13;;;;;;;25.67;16.23;;;;;;;;;;5127449;27;20095;-84
2023/05/09 09:46:43;;;;;;;26.13;15.63;;;;;;;;;;5154058;27;20054;-84
2023/05/09 09:49:10;;;;;;;24.83;16.02;;;;;;;;;;5146212;27;20043;-74
2023/05/09 09:51:36;;;;;;;23.48;15.77;;;;;;;;;;5129643;27;20081;-74
2023/05/09 09:54:03;;;;;;;25.05;16.05;;;;;;;;;;5105074;27;20046;-75
2023/05/09 09:56:46;;;;;;;29.40;16.85;;;;;;;;;;5119878;27;20082;-74
2023/05/09 09:59:14;;;;;;;26.40;16.00;;;;;;;;;;5115194;27;20035;-84
2023/05/09 10:01:54;;;;;;;22.60;15.48;;;;;;;;;;5134539;27;20118;-82
2023/05/09 10:04:20;;;;;;;21.35;14.23;;;;;;;;;;5142135;27;20041;-82
2023/05/09 10:06:52;;;;;;;23.45;15.15;;;;;;;;;;5129798;28;20047;-83
2023/05/09 10:09:20;;;;;;;22.40;14.52;;;;;;;;;;5129334;27;20043;-83
2023/05/09 10:11:49;;;;;;;21.10;14.65;;;;;;;;;;5153456;27;20042;-81
2023/05/09 10:14:15;;;;;;;20.80;13.63;;;;;;;;;;5130884;27;20042;-83
2023/05/09 10:16:42;;;;;;;20.05;14.00;;;;;;;;;;5138229;27;20139;-83
2023/05/09 10:19:08;;;;;;;23.08;14.45;;;;;;;;;;5152241;27;20039;-83
2023/05/09 10:21:35;;;;;;;23.65;14.75;;;;;;;;;;5146876;27;20092;-83
2023/05/09 10:24:02;;;;;;;19.33;13.98;;;;;;;;;;5137937;27;20490;-83
2023/05/09 10:26:31;;;;;;;22.15;14.55;;;;;;;;;;5149789;27;20403;-83
2023/05/09 10:29:00;;;;;;;20.85;13.82;;;;;;;;;;5119386;27;20495;-81
2023/05/09 10:31:27;;;;;;;29.50;15.05;;;;;;;;;;5153214;27;20035;-80
2023/05/09 10:33:54;;;;;;;21.05;14.70;;;;;;;;;;5131542;27;20119;-82
2023/05/09 10:36:22;;;;;;;22.83;14.68;;;;;;;;;;5156938;27;20035;-81
2023/05/09 10:38:49;;;;;;;21.73;14.07;;;;;;;;;;5131564;27;20042;-83
2023/05/09 10:41:16;;;;;;;22.80;14.40;;;;;;;;;;5134951;27;20088;-82
2023/05/09 10:43:43;;;;;;;23.83;14.25;;;;;;;;;;5119983;27;20043;-83
2023/05/09 10:46:09;;;;;;;23.02;14.27;;;;;;;;;;5118617;27;20062;-75
2023/05/09 10:48:36;;;;;;;22.80;14.27;;;;;;;;;;5153020;27;20110;-74
2023/05/09 10:51:02;;;;;;;20.02;14.02;;;;;;;;;;5120390;27;20047;-75
2023/05/09 10:53:48;;;;;;;22.80;13.95;;;;;;;;;;5125288;27;20045;-74
2023/05/09 10:56:23;;;;;;;23.00;14.73;;;;;;;;;;5135348;27;20474;-75
2023/05/09 10:58:49;;;;;;;21.83;14.57;;;;;;;;;;5137594;27;20061;-75
2023/05/09 11:01:27;;;;;;;19.13;14.00;;;;;;;;;;5135477;27;20095;-84
2023/05/09 11:03:57;;;;;;;22.23;13.90;;;;;;;;;;5126204;27;20091;-82
2023/05/09 11:06:42;;;;;;;21.15;14.13;;;;;;;;;;5137556;27;20074;-84
2023/05/09 11:09:28;;;;;;;19.85;14.27;;;;;;;;;;5137356;27;20038;-75
2023/05/09 11:12:17;;;;;;;23.15;14.95;;;;;;;;;;5132376;27;20395;-81
2023/05/09 11:14:48;;;;;;;22.13;15.77;;;;;;;;;;5144380;27;20056;-84
2023/05/09 11:17:14;;;;;;;23.67;16.70;;;;;;;;;;5136849;27;20103;-83
2023/05/09 11:19:46;;;;;;;27.90;16.92;;;;;;;;;;5156027;27;20042;-84
2023/05/09 11:22:13;;;;;;;29.08;17.70;;;;;;;;;;5106020;27;20043;-82
2023/05/09 11:24:42;;;;;;;25.88;17.23;;;;;;;;;;5156861;27;20491;-83
2023/05/09 11:27:15;;;;;;;25.67;18.15;;;;;;;;;;5136089;27;20066;-84
2023/05/09 11:29:52;;;;;;;23.30;17.05;;;;;;;;;;5129111;27;20043;-86
2023/05/09 11:32:19;;;;;;;22.35;16.27;;;;;;;;;;5120871;27;20368;-87
2023/05/09 11:34:46;;;;;;;22.77;16.63;;;;;;;;;;5116297;27;20568;-86
2023/05/09 11:37:13;;;;;;;20.75;15.90;;;;;;;;;;5136664;27;20063;-85
2023/05/09 11:39:59;;;;;;;22.42;15.63;;;;;;;;;;5124306;27;20039;-86
2023/05/09 11:42:28;;;;;;;20.55;16.00;;;;;;;;;;5126434;27;20039;-75
2023/05/09 11:44:56;;;;;;;18.48;14.98;;;;;;;;;;5154366;27;20058;-76
2023/05/09 11:47:22;;;;;;;20.75;15.57;;;;;;;;;;5136939;27;20062;-74
2023/05/09 11:49:48;;;;;;;20.83;14.65;;;;;;;;;;5136296;27;20062;-76
2023/05/09 11:52:24;;;;;;;17.00;13.10;;;;;;;;;;5134699;27;20050;-76
2023/05/09 11:54:50;;;;;;;;;;;;;;;;;;5106777;27;20043;-75
2023/05/09 11:57:16;;;;;;;18.33;13.63;;;;;;;;;;5103203;27;19993;-75
2023/05/09 11:59:46;;;;;;;15.27;12.75;;;;;;;;;;5136206;27;20089;-86
2023/05/09 12:02:12;;;;;;;18.58;13.20;;;;;;;;;;5127206;27;20063;-76
2023/05/09 12:04:38;;;;;;;20.15;13.82;;;;;;;;;;5152072;27;20031;-86
2023/05/09 12:07:05;;;;;;;19.70;13.98;;;;;;;;;;5150372;27;20038;-85
2023/05/09 12:09:32;;;;;;;17.50;13.18;;;;;;;;;;5145509;27;20127;-76
2023/05/09 12:11:59;;;;;;;14.85;12.75;;;;;;;;;;5148367;27;20050;-76
2023/05/09 12:14:26;;;;;;;15.13;12.30;;;;;;;;;;5125763;27;20031;-76
2023/05/09 12:16:52;;;;;;;16.15;11.85;;;;;;;;;;5136641;27;20476;-84
2023/05/09 12:19:18;;;;;;;13.65;11.60;;;;;;;;;;5137810;27;20037;-85
2023/05/09 12:21:44;;;;;;;15.90;12.23;;;;;;;;;;5137062;27;20039;-84
2023/05/09 12:24:10;;;;;;;14.85;11.65;;;;;;;;;;5150334;27;20416;-83
2023/05/09 12:26:36;;;;;;;16.25;12.90;;;;;;;;;;5122103;27;20039;-83
2023/05/09 12:29:03;;;;;;;16.77;13.00;;;;;;;;;;5131601;27;20058;-84
2023/05/09 12:31:29;;;;;;;17.27;12.90;;;;;;;;;;5136329;27;20045;-83
2023/05/09 12:33:55;;;;;;;16.05;13.45;;;;;;;;;;5127565;27;20050;-84
2023/05/09 12:36:23;;;;;;;16.48;12.70;;;;;;;;;;5125048;27;20513;-76
2023/05/09 12:38:53;;;;;;;13.68;12.15;;;;;;;;;;5135624;27;20071;-79
2023/05/09 12:41:20;;;;;;;16.38;12.95;;;;;;;;;;5132633;27;20119;-79
2023/05/09 12:43:48;;;;;;;16.55;12.70;;;;;;;;;;5148515;27;20038;-75
2023/05/09 12:46:17;;;;;;;15.50;12.02;;;;;;;;;;5119062;27;20094;-81
2023/05/09 12:48:44;;;;;;;13.05;9.95;;;;;;;;;;5119908;27;20529;-80
2023/05/09 12:51:10;;;;;;;11.48;8.75;;;;;;;;;;5130725;27;20092;-82
2023/05/09 12:53:40;;;;;;;10.18;7.57;;;;;;;;;;5136430;27;20042;-81
2023/05/09 12:56:20;;;;;;;9.35;7.43;;;;;;;;;;5130021;27;20050;-81
2023/05/09 12:58:50;;;;;;;9.68;7.20;;;;;;;;;;5131841;27;20039;-81
2023/05/09 13:01:17;;;;;;;9.82;7.55;;;;;;;;;;5154198;27;20043;-76
2023/05/09 13:03:43;;;;;;;9.63;7.65;;;;;;;;;;5135405;27;20047;-76
2023/05/09 13:06:13;;;;;;;9.30;7.50;;;;;;;;;;5131290;27;20092;-76
2023/05/09 13:08:40;;;;;;;9.20;7.80;;;;;;;;;;5130101;27;20093;-76
2023/05/09 13:11:09;;;;;;;9.85;7.40;;;;;;;;;;5110095;28;20050;-77
2023/05/09 13:13:35;;;;;;;9.15;7.25;;;;;;;;;;5139814;27;20039;-84
2023/05/09 13:16:03;;;;;;;9.13;7.47;;;;;;;;;;5147038;27;20414;-85
2023/05/09 13:18:29;;;;;;;8.27;7.03;;;;;;;;;;5146608;27;20083;-77
2023/05/09 13:20:55;;;;;;;9.13;6.97;;;;;;;;;;5148759;27;20039;-83
2023/05/09 13:23:21;;;;;;;10.75;7.53;;;;;;;;;;5134537;27;20066;-83
2023/05/09 13:25:47;;;;;;;9.57;7.70;;;;;;;;;;5114883;27;20043;-84
2023/05/09 13:28:14;;;;;;;8.63;7.45;;;;;;;;;;5129849;27;20039;-77
2023/05/09 13:30:40;;;;;;;9.32;7.10;;;;;;;;;;5131534;27;20494;-81
2023/05/09 13:33:06;;;;;;;10.15;7.32;;;;;;;;;;5112929;27;20088;-85
2023/05/09 13:35:32;;;;;;;9.00;7.47;;;;;;;;;;5153104;27;20081;-84
2023/05/09 13:37:59;;;;;;;10.02;7.63;;;;;;;;;;5151677;27;20057;-84
2023/05/09 13:40:26;;;;;;;11.45;8.20;;;;;;;;;;5119827;28;20116;-82
2023/05/09 13:42:52;;;;;;;9.95;7.65;;;;;;;;;;5132517;27;20509;-83
2023/05/09 13:45:18;;;;;;;8.10;6.82;;;;;;;;;;5124452;28;20047;-82
2023/05/09 13:47:44;;;;;;;7.82;6.22;;;;;;;;;;5121471;27;20449;-83
2023/05/09 13:50:10;;;;;;;8.05;6.30;;;;;;;;;;5147899;27;20096;-75
2023/05/09 13:52:36;;;;;;;7.53;6.35;;;;;;;;;;5125735;27;20047;-83
2023/05/09 13:55:03;;;;;;;7.53;6.28;;;;;;;;;;5129188;27;20433;-84
2023/05/09 13:57:29;;;;;;;7.85;5.82;;;;;;;;;;5118080;27;20403;-83
2023/05/09 13:59:55;;;;;;;6.28;5.10;;;;;;;;;;5120497;27;20035;-83
2023/05/09 14:02:21;;;;;;;5.20;3.85;;;;;;;;;;5101114;27;20049;-82
2023/05/09 14:04:47;;;;;;;5.20;3.97;;;;;;;;;;5106617;27;20031;-77
2023/05/09 14:07:15;;;;;;;4.25;3.08;;;;;;;;;;5118553;27;20046;-78
2023/05/09 14:09:41;;;;;;;4.72;3.53;;;;;;;;;;5130995;27;20055;-83
2023/05/09 14:12:08;;;;;;;6.20;3.80;;;;;;;;;;5140227;27;20406;-85
2023/05/09 14:14:34;;;;;;;5.10;3.42;;;;;;;;;;5138129;27;20096;-86
2023/05/09 14:17:00;;;;;;;6.60;3.65;;;;;;;;;;5134692;27;20091;-86
2023/05/09 14:19:29;;;;;;;4.47;3.60;;;;;;;;;;5123969;27;20042;-80